sensor_id;sensor_type;location;lat;lon;timestamp;pressure;altitude;pressure_sealevel;temperature;humidity
76598;BME280;65486;53.144;18.134;2023-04-03T13:05:39;102328.77;;;6.75;35.32
76598;BME280;65486;53.144;18.134;2023-04-03T13:08:10;102324.64;;;6.59;35.79
76598;BME280;65486;53.144;18.134;2023-04-03T13:10:57;102330.81;;;6.49;36.23
76598;BME280;65486;53.144;18.134;2023-04-03T13:13:25;102332.80;;;6.46;36.69
76598;BME280;65486;53.144;18.134;2023-04-03T13:15:53;102324.89;;;6.44;36.56
76598;BME280;65486;53.144;18.134;2023-04-03T13:18:31;102324.38;;;6.42;37.18
76598;BME280;65486;53.144;18.134;2023-04-03T13:21:26;102333.13;;;6.42;37.34
76598;BME280;65486;53.144;18.134;2023-04-03T13:23:57;102302.71;;;6.15;38.07
76598;BME280;65486;53.144;18.134;2023-04-03T13:26:30;102329.65;;;6.11;37.97
76598;BME280;65486;53.144;18.134;2023-04-03T13:29:05;102329.89;;;5.92;38.01
76598;BME280;65486;53.144;18.134;2023-04-03T13:31:39;102317.46;;;5.74;38.28
76598;BME280;65486;53.144;18.134;2023-04-03T13:34:27;102329.44;;;5.82;38.26
76598;BME280;65486;53.144;18.134;2023-04-03T13:37:04;102319.52;;;5.88;38.39
76598;BME280;65486;53.144;18.134;2023-04-03T13:39:38;102315.08;;;6.03;39.04
76598;BME280;65486;53.144;18.134;2023-04-03T13:42:24;102316.29;;;6.13;39.27
76598;BME280;65486;53.144;18.134;2023-04-03T13:45:17;102322.59;;;6.07;39.79
76598;BME280;65486;53.144;18.134;2023-04-03T13:47:51;102336.89;;;5.80;40.84
76598;BME280;65486;53.144;18.134;2023-04-03T13:50:23;102334.29;;;5.57;41.06
76598;BME280;65486;53.144;18.134;2023-04-03T13:53:01;102330.34;;;5.46;41.54
76598;BME280;65486;53.144;18.134;2023-04-03T13:55:35;102334.61;;;5.32;41.99
76598;BME280;65486;53.144;18.134;2023-04-03T14:00:39;102325.34;;;5.30;42.60
76598;BME280;65486;53.144;18.134;2023-04-03T14:03:56;102321.11;;;5.54;43.16
76598;BME280;65486;53.144;18.134;2023-04-03T14:06:28;102318.02;;;5.72;42.90
76598;BME280;65486;53.144;18.134;2023-04-03T14:08:57;102320.86;;;5.80;42.12
76598;BME280;65486;53.144;18.134;2023-04-03T14:11:32;102317.02;;;5.82;40.88
76598;BME280;65486;53.144;18.134;2023-04-03T14:14:12;102315.56;;;5.75;39.67
76598;BME280;65486;53.144;18.134;2023-04-03T14:16:46;102312.30;;;5.64;40.23
76598;BME280;65486;53.144;18.134;2023-04-03T14:19:23;102311.33;;;5.48;40.79
76598;BME280;65486;53.144;18.134;2023-04-03T14:21:51;102313.20;;;5.30;41.23
76598;BME280;65486;53.144;18.134;2023-04-03T14:24:20;102316.10;;;5.20;41.78
76598;BME280;65486;53.144;18.134;2023-04-03T14:26:53;102320.18;;;5.10;42.42
76598;BME280;65486;53.144;18.134;2023-04-03T14:29:22;102321.85;;;4.95;42.24
76598;BME280;65486;53.144;18.134;2023-04-03T14:31:51;102323.13;;;4.78;42.72
76598;BME280;65486;53.144;18.134;2023-04-03T14:34:22;102319.22;;;4.68;42.54
76598;BME280;65486;53.144;18.134;2023-04-03T14:37:01;102313.67;;;4.63;42.55
76598;BME280;65486;53.144;18.134;2023-04-03T14:39:35;102315.39;;;4.60;42.72
76598;BME280;65486;53.144;18.134;2023-04-03T14:42:05;102313.73;;;4.59;42.61
76598;BME280;65486;53.144;18.134;2023-04-03T14:44:38;102313.83;;;4.62;42.58
76598;BME280;65486;53.144;18.134;2023-04-03T14:47:21;102318.08;;;4.74;41.70
76598;BME280;65486;53.144;18.134;2023-04-03T14:49:52;102311.67;;;4.86;41.19
76598;BME280;65486;53.144;18.134;2023-04-03T14:52:26;102316.02;;;4.93;40.56
76598;BME280;65486;53.144;18.134;2023-04-03T14:55:02;102316.66;;;4.89;39.80
76598;BME280;65486;53.144;18.134;2023-04-03T14:57:33;102313.44;;;4.81;40.23
76598;BME280;65486;53.144;18.134;2023-04-03T15:00:04;102309.40;;;4.71;40.79
76598;BME280;65486;53.144;18.134;2023-04-03T15:02:36;102306.42;;;4.65;41.16
76598;BME280;65486;53.144;18.134;2023-04-03T15:05:09;102302.65;;;4.66;41.46
76598;BME280;65486;53.144;18.134;2023-04-03T15:07:58;102302.63;;;4.80;41.45
76598;BME280;65486;53.144;18.134;2023-04-03T15:10:30;102311.38;;;4.89;41.29
76598;BME280;65486;53.144;18.134;2023-04-03T15:12:57;102313.14;;;4.82;41.49
76598;BME280;65486;53.144;18.134;2023-04-03T15:15:28;102320.91;;;4.67;42.06
76598;BME280;65486;53.144;18.134;2023-04-03T15:17:56;102322.33;;;4.49;41.93
76598;BME280;65486;53.144;18.134;2023-04-03T15:20:28;102317.61;;;4.31;42.35
76598;BME280;65486;53.144;18.134;2023-04-03T15:22:57;102315.52;;;4.25;42.81
76598;BME280;65486;53.144;18.134;2023-04-03T15:25:28;102317.06;;;4.20;43.19
76598;BME280;65486;53.144;18.134;2023-04-03T15:27:59;102313.49;;;4.19;42.80
76598;BME280;65486;53.144;18.134;2023-04-03T15:30:26;102316.38;;;4.21;41.98
76598;BME280;65486;53.144;18.134;2023-04-03T15:32:56;102313.69;;;4.23;40.75
76598;BME280;65486;53.144;18.134;2023-04-03T15:35:24;102325.33;;;4.19;40.76
76598;BME280;65486;53.144;18.134;2023-04-03T15:38:13;102323.17;;;4.15;40.61
76598;BME280;65486;53.144;18.134;2023-04-03T15:40:58;102320.01;;;4.10;40.74
76598;BME280;65486;53.144;18.134;2023-04-03T15:43:26;102323.80;;;4.05;41.13
76598;BME280;65486;53.144;18.134;2023-04-03T15:45:56;102325.86;;;3.98;41.64
76598;BME280;65486;53.144;18.134;2023-04-03T15:48:25;102326.26;;;3.90;42.29
76598;BME280;65486;53.144;18.134;2023-04-03T15:50:55;102325.13;;;3.81;42.54
76598;BME280;65486;53.144;18.134;2023-04-03T15:53:23;102329.88;;;3.74;42.69
76598;BME280;65486;53.144;18.134;2023-04-03T15:55:59;102322.36;;;3.67;42.70
76598;BME280;65486;53.144;18.134;2023-04-03T15:58:30;102321.81;;;3.62;42.79
76598;BME280;65486;53.144;18.134;2023-04-03T16:00:58;102319.55;;;3.55;42.83
76598;BME280;65486;53.144;18.134;2023-04-03T16:03:26;102319.02;;;3.51;42.68
76598;BME280;65486;53.144;18.134;2023-04-03T16:05:53;102317.63;;;3.48;42.82
76598;BME280;65486;53.144;18.134;2023-04-03T16:08:20;102317.50;;;3.45;42.50
76598;BME280;65486;53.144;18.134;2023-04-03T16:10:49;102320.75;;;3.41;42.56
76598;BME280;65486;53.144;18.134;2023-04-03T16:13:27;102319.73;;;3.38;42.57
76598;BME280;65486;53.144;18.134;2023-04-03T16:16:05;102307.05;;;3.32;42.63
76598;BME280;65486;53.144;18.134;2023-04-03T16:18:38;102318.59;;;3.39;42.90
76598;BME280;65486;53.144;18.134;2023-04-03T16:21:09;102319.84;;;3.41;42.98
76598;BME280;65486;53.144;18.134;2023-04-03T16:23:36;102321.38;;;3.42;42.98
76598;BME280;65486;53.144;18.134;2023-04-03T16:26:03;102329.90;;;3.47;43.13
76598;BME280;65486;53.144;18.134;2023-04-03T16:28:30;102328.34;;;3.50;42.98
76598;BME280;65486;53.144;18.134;2023-04-03T16:30:57;102337.86;;;3.51;44.80
76598;BME280;65486;53.144;18.134;2023-04-03T16:33:27;102334.77;;;3.47;46.96
76598;BME280;65486;53.144;18.134;2023-04-03T16:35:55;102337.85;;;3.39;47.45
76598;BME280;65486;53.144;18.134;2023-04-03T16:38:22;102343.81;;;3.29;46.46
76598;BME280;65486;53.144;18.134;2023-04-03T16:40:52;102339.60;;;3.18;45.97
76598;BME280;65486;53.144;18.134;2023-04-03T16:43:28;102346.29;;;3.06;45.74
76598;BME280;65486;53.144;18.134;2023-04-03T16:45:58;102348.39;;;2.97;46.44
76598;BME280;65486;53.144;18.134;2023-04-03T16:48:25;102350.47;;;2.88;46.77
76598;BME280;65486;53.144;18.134;2023-04-03T16:50:52;102356.04;;;2.80;47.25
76598;BME280;65486;53.144;18.134;2023-04-03T16:53:23;102357.83;;;2.74;47.26
76598;BME280;65486;53.144;18.134;2023-04-03T16:55:52;102354.46;;;2.72;47.82
76598;BME280;65486;53.144;18.134;2023-04-03T16:58:19;102357.14;;;2.68;48.01
76598;BME280;65486;53.144;18.134;2023-04-03T17:00:47;102354.60;;;2.64;48.64
76598;BME280;65486;53.144;18.134;2023-04-03T17:03:14;102358.99;;;2.59;48.79
76598;BME280;65486;53.144;18.134;2023-04-03T17:05:42;102358.83;;;2.52;48.83
76598;BME280;65486;53.144;18.134;2023-04-03T17:08:16;102361.27;;;2.47;49.20
76598;BME280;65486;53.144;18.134;2023-04-03T17:10:46;102363.29;;;2.43;49.77
76598;BME280;65486;53.144;18.134;2023-04-03T17:13:17;102361.70;;;2.38;49.87
76598;BME280;65486;53.144;18.134;2023-04-03T17:15:44;102367.80;;;2.35;49.87
76598;BME280;65486;53.144;18.134;2023-04-03T17:18:14;102368.49;;;2.33;50.27
76598;BME280;65486;53.144;18.134;2023-04-03T17:20:41;102368.00;;;2.32;50.29
76598;BME280;65486;53.144;18.134;2023-04-03T17:23:08;102371.72;;;2.31;50.64
76598;BME280;65486;53.144;18.134;2023-04-03T17:25:35;102373.40;;;2.33;51.80
76598;BME280;65486;53.144;18.134;2023-04-03T17:28:02;102372.66;;;2.33;51.94
76598;BME280;65486;53.144;18.134;2023-04-03T17:30:29;102376.79;;;2.36;52.24
76598;BME280;65486;53.144;18.134;2023-04-03T17:32:58;102376.14;;;2.37;52.98
76598;BME280;65486;53.144;18.134;2023-04-03T17:35:26;102378.65;;;2.37;53.18
76598;BME280;65486;53.144;18.134;2023-04-03T17:38:15;102381.02;;;2.37;53.22
76598;BME280;65486;53.144;18.134;2023-04-03T17:40:50;102376.37;;;2.34;52.93
76598;BME280;65486;53.144;18.134;2023-04-03T17:43:18;102375.96;;;2.31;52.83
76598;BME280;65486;53.144;18.134;2023-04-03T17:45:51;102379.19;;;2.27;52.15
76598;BME280;65486;53.144;18.134;2023-04-03T17:48:31;102383.89;;;2.21;52.22
76598;BME280;65486;53.144;18.134;2023-04-03T17:51:25;102379.98;;;2.13;52.77
76598;BME280;65486;53.144;18.134;2023-04-03T17:54:29;102378.63;;;2.06;52.76
76598;BME280;65486;53.144;18.134;2023-04-03T17:57:00;102377.23;;;1.99;52.57
76598;BME280;65486;53.144;18.134;2023-04-03T17:59:35;102379.14;;;1.91;53.10
76598;BME280;65486;53.144;18.134;2023-04-03T18:02:04;102360.13;;;1.74;53.57
76598;BME280;65486;53.144;18.134;2023-04-03T18:04:40;102362.00;;;1.71;53.35
76598;BME280;65486;53.144;18.134;2023-04-03T18:07:20;102374.32;;;1.68;53.74
76598;BME280;65486;53.144;18.134;2023-04-03T18:09:51;102375.88;;;1.65;53.53
76598;BME280;65486;53.144;18.134;2023-04-03T18:12:19;102377.71;;;1.63;53.84
76598;BME280;65486;53.144;18.134;2023-04-03T18:14:46;102383.52;;;1.60;53.78
76598;BME280;65486;53.144;18.134;2023-04-03T18:17:15;102379.88;;;1.58;54.09
76598;BME280;65486;53.144;18.134;2023-04-03T18:19:43;102385.61;;;1.59;54.40
76598;BME280;65486;53.144;18.134;2023-04-03T18:22:14;102350.00;;;1.41;54.31
76598;BME280;65486;53.144;18.134;2023-04-03T18:28:12;102386.72;;;1.65;54.58
76598;BME280;65486;53.144;18.134;2023-04-03T18:30:48;102389.10;;;1.65;54.66
76598;BME280;65486;53.144;18.134;2023-04-03T18:33:29;102385.95;;;1.64;54.24
76598;BME280;65486;53.144;18.134;2023-04-03T18:35:58;102382.23;;;1.63;53.79
76598;BME280;65486;53.144;18.134;2023-04-03T18:38:25;102386.63;;;1.62;54.02
76598;BME280;65486;53.144;18.134;2023-04-03T18:40:52;102387.36;;;1.62;54.15
76598;BME280;65486;53.144;18.134;2023-04-03T18:43:19;102389.46;;;1.63;53.88
76598;BME280;65486;53.144;18.134;2023-04-03T18:45:46;102384.74;;;1.65;53.64
76598;BME280;65486;53.144;18.134;2023-04-03T18:48:21;102384.29;;;1.66;53.69
76598;BME280;65486;53.144;18.134;2023-04-03T18:51:09;102378.92;;;1.68;53.53
76598;BME280;65486;53.144;18.134;2023-04-03T18:53:37;102380.08;;;1.69;53.20
76598;BME280;65486;53.144;18.134;2023-04-03T18:56:04;102376.91;;;1.70;52.69
76598;BME280;65486;53.144;18.134;2023-04-03T18:58:43;102381.02;;;1.73;52.56
76598;BME280;65486;53.144;18.134;2023-04-03T19:01:29;102380.11;;;1.75;51.88
76598;BME280;65486;53.144;18.134;2023-04-03T19:04:11;102381.05;;;1.77;51.60
76598;BME280;65486;53.144;18.134;2023-04-03T19:06:45;102376.42;;;1.78;51.41
76598;BME280;65486;53.144;18.134;2023-04-03T19:09:13;102374.75;;;1.81;51.38
76598;BME280;65486;53.144;18.134;2023-04-03T19:11:40;102375.05;;;1.82;51.20
76598;BME280;65486;53.144;18.134;2023-04-03T19:14:07;102371.48;;;1.83;51.15
76598;BME280;65486;53.144;18.134;2023-04-03T19:16:34;102369.27;;;1.84;51.19
76598;BME280;65486;53.144;18.134;2023-04-03T19:19:02;102371.99;;;1.84;51.40
76598;BME280;65486;53.144;18.134;2023-04-03T19:21:40;102369.82;;;1.84;51.56
76598;BME280;65486;53.144;18.134;2023-04-03T19:24:37;102364.16;;;1.80;51.45
76598;BME280;65486;53.144;18.134;2023-04-03T19:27:05;102370.90;;;1.84;51.17
76598;BME280;65486;53.144;18.134;2023-04-03T19:29:37;102370.91;;;1.84;51.42
76598;BME280;65486;53.144;18.134;2023-04-03T19:32:08;102371.01;;;1.83;51.31
76598;BME280;65486;53.144;18.134;2023-04-03T19:34:36;102372.06;;;1.83;51.49
76598;BME280;65486;53.144;18.134;2023-04-03T19:37:03;102370.14;;;1.82;51.60
76598;BME280;65486;53.144;18.134;2023-04-03T19:39:31;102373.20;;;1.82;51.85
76598;BME280;65486;53.144;18.134;2023-04-03T19:42:16;102371.37;;;1.80;51.68
76598;BME280;65486;53.144;18.134;2023-04-03T19:44:47;102370.96;;;1.81;52.01
76598;BME280;65486;53.144;18.134;2023-04-03T19:47:15;102368.91;;;1.81;51.92
76598;BME280;65486;53.144;18.134;2023-04-03T19:49:46;102372.36;;;1.84;52.16
76598;BME280;65486;53.144;18.134;2023-04-03T19:52:15;102368.19;;;1.85;51.87
76598;BME280;65486;53.144;18.134;2023-04-03T19:54:42;102368.98;;;1.87;52.05
76598;BME280;65486;53.144;18.134;2023-04-03T19:57:10;102364.92;;;1.86;51.71
76598;BME280;65486;53.144;18.134;2023-04-03T19:59:44;102361.58;;;1.84;51.89
76598;BME280;65486;53.144;18.134;2023-04-03T20:02:11;102359.39;;;1.85;51.76
76598;BME280;65486;53.144;18.134;2023-04-03T20:04:40;102357.22;;;1.84;51.60
76598;BME280;65486;53.144;18.134;2023-04-03T20:07:07;102352.19;;;1.84;51.75
76598;BME280;65486;53.144;18.134;2023-04-03T20:09:34;102352.67;;;1.83;51.69
76598;BME280;65486;53.144;18.134;2023-04-03T20:12:03;102353.59;;;1.82;51.38
76598;BME280;65486;53.144;18.134;2023-04-03T20:14:31;102351.41;;;1.82;51.71
76598;BME280;65486;53.144;18.134;2023-04-03T20:16:59;102347.71;;;1.81;51.20
76598;BME280;65486;53.144;18.134;2023-04-03T20:19:26;102345.05;;;1.80;51.22
76598;BME280;65486;53.144;18.134;2023-04-03T20:21:59;102345.52;;;1.79;51.20
76598;BME280;65486;53.144;18.134;2023-04-03T20:24:26;102341.14;;;1.80;51.16
76598;BME280;65486;53.144;18.134;2023-04-03T20:26:58;102343.55;;;1.79;51.26
76598;BME280;65486;53.144;18.134;2023-04-03T20:29:26;102348.38;;;1.80;51.29
76598;BME280;65486;53.144;18.134;2023-04-03T20:31:53;102345.90;;;1.79;51.36
76598;BME280;65486;53.144;18.134;2023-04-03T20:34:22;102345.38;;;1.79;51.65
76598;BME280;65486;53.144;18.134;2023-04-03T20:36:48;102345.87;;;1.77;51.20
76598;BME280;65486;53.144;18.134;2023-04-03T20:39:17;102348.51;;;1.76;51.59
76598;BME280;65486;53.144;18.134;2023-04-03T20:41:50;102347.80;;;1.76;51.67
76598;BME280;65486;53.144;18.134;2023-04-03T20:44:18;102351.03;;;1.76;52.16
76598;BME280;65486;53.144;18.134;2023-04-03T20:46:50;102349.20;;;1.74;51.94
76598;BME280;65486;53.144;18.134;2023-04-03T20:49:17;102348.16;;;1.76;51.91
76598;BME280;65486;53.144;18.134;2023-04-03T20:51:50;102354.00;;;1.75;51.79
76598;BME280;65486;53.144;18.134;2023-04-03T20:54:18;102353.50;;;1.75;52.24
76598;BME280;65486;53.144;18.134;2023-04-03T20:56:50;102350.30;;;1.74;52.03
76598;BME280;65486;53.144;18.134;2023-04-03T20:59:22;102354.91;;;1.73;52.08
76598;BME280;65486;53.144;18.134;2023-04-03T21:02:06;102354.78;;;1.73;52.26
76598;BME280;65486;53.144;18.134;2023-04-03T21:04:40;102357.96;;;1.71;52.53
76598;BME280;65486;53.144;18.134;2023-04-03T21:19:13;102359.23;;;1.58;52.58
76598;BME280;65486;53.144;18.134;2023-04-03T21:21:44;102356.10;;;1.52;52.61
76598;BME280;65486;53.144;18.134;2023-04-03T21:24:16;102357.06;;;1.45;52.73
76598;BME280;65486;53.144;18.134;2023-04-03T21:26:44;102359.08;;;1.36;52.70
76598;BME280;65486;53.144;18.134;2023-04-03T21:29:12;102355.56;;;1.26;52.89
76598;BME280;65486;53.144;18.134;2023-04-03T21:32:02;102349.95;;;1.15;52.82
76598;BME280;65486;53.144;18.134;2023-04-03T21:34:30;102355.38;;;1.08;53.24
76598;BME280;65486;53.144;18.134;2023-04-03T21:37:05;102345.54;;;0.98;53.14
76598;BME280;65486;53.144;18.134;2023-04-03T21:39:35;102349.25;;;0.96;53.33
76598;BME280;65486;53.144;18.134;2023-04-03T21:42:03;102347.84;;;0.92;53.48
76598;BME280;65486;53.144;18.134;2023-04-03T21:44:30;102351.02;;;0.85;53.96
76598;BME280;65486;53.144;18.134;2023-04-03T21:46:58;102348.55;;;0.80;53.88
76598;BME280;65486;53.144;18.134;2023-04-03T21:49:28;102356.11;;;0.74;54.20
76598;BME280;65486;53.144;18.134;2023-04-03T21:51:57;102351.41;;;0.67;54.15
76598;BME280;65486;53.144;18.134;2023-04-03T21:54:32;102352.55;;;0.62;54.42
76598;BME280;65486;53.144;18.134;2023-04-03T21:57:08;102350.44;;;0.54;54.52
76598;BME280;65486;53.144;18.134;2023-04-03T21:59:47;102348.33;;;0.49;54.56
76598;BME280;65486;53.144;18.134;2023-04-03T22:02:23;102349.08;;;0.44;54.79
76598;BME280;65486;53.144;18.134;2023-04-03T22:04:52;102352.22;;;0.38;54.77
76598;BME280;65486;53.144;18.134;2023-04-03T22:07:20;102353.64;;;0.34;55.28
76598;BME280;65486;53.144;18.134;2023-04-03T22:09:48;102352.06;;;0.29;55.31
76598;BME280;65486;53.144;18.134;2023-04-03T22:12:14;102355.21;;;0.23;55.62
76598;BME280;65486;53.144;18.134;2023-04-03T22:14:42;102349.35;;;0.20;55.66
76598;BME280;65486;53.144;18.134;2023-04-03T22:17:11;102347.91;;;0.15;55.79
76598;BME280;65486;53.144;18.134;2023-04-03T22:19:40;102347.01;;;0.10;56.07
76598;BME280;65486;53.144;18.134;2023-04-03T22:22:11;102347.21;;;0.07;56.07
76598;BME280;65486;53.144;18.134;2023-04-03T22:24:40;102338.17;;;-0.02;56.05
76598;BME280;65486;53.144;18.134;2023-04-03T22:27:09;102345.67;;;-0.04;56.00
76598;BME280;65486;53.144;18.134;2023-04-03T22:29:41;102348.45;;;-0.09;56.23
76598;BME280;65486;53.144;18.134;2023-04-03T22:32:08;102343.63;;;-0.15;56.34
76598;BME280;65486;53.144;18.134;2023-04-03T22:34:35;102347.17;;;-0.18;56.75
76598;BME280;65486;53.144;18.134;2023-04-03T22:37:05;102343.30;;;-0.22;56.79
76598;BME280;65486;53.144;18.134;2023-04-03T22:39:32;102342.57;;;-0.27;56.91
76598;BME280;65486;53.144;18.134;2023-04-03T22:42:03;102316.81;;;-0.44;56.88
76598;BME280;65486;53.144;18.134;2023-04-03T22:44:36;102340.77;;;-0.31;56.81
76598;BME280;65486;53.144;18.134;2023-04-03T22:47:03;102342.20;;;-0.31;57.12
76598;BME280;65486;53.144;18.134;2023-04-03T22:49:33;102337.52;;;-0.31;56.94
76598;BME280;65486;53.144;18.134;2023-04-03T22:52:03;102337.72;;;-0.32;56.96
76598;BME280;65486;53.144;18.134;2023-04-03T22:54:32;102336.25;;;-0.31;57.14
76598;BME280;65486;53.144;18.134;2023-04-03T22:57:00;102329.98;;;-0.37;57.41
76598;BME280;65486;53.144;18.134;2023-04-03T22:59:30;102339.54;;;-0.32;57.29
76598;BME280;65486;53.144;18.134;2023-04-03T23:01:59;102333.52;;;-0.34;57.20
76598;BME280;65486;53.144;18.134;2023-04-03T23:04:56;102331.45;;;-0.37;57.43
76598;BME280;65486;53.144;18.134;2023-04-03T23:07:26;102333.96;;;-0.37;57.44
76598;BME280;65486;53.144;18.134;2023-04-03T23:09:54;102332.88;;;-0.37;57.46
76598;BME280;65486;53.144;18.134;2023-04-03T23:12:26;102336.76;;;-0.33;57.55
76598;BME280;65486;53.144;18.134;2023-04-03T23:14:57;102328.64;;;-0.29;57.51
76598;BME280;65486;53.144;18.134;2023-04-03T23:17:30;102326.23;;;-0.21;57.37
76598;BME280;65486;53.144;18.134;2023-04-03T23:19:58;102322.31;;;-0.15;57.50
76598;BME280;65486;53.144;18.134;2023-04-03T23:22:25;102320.25;;;-0.09;57.47
76598;BME280;65486;53.144;18.134;2023-04-03T23:24:52;102318.80;;;-0.04;57.09
76598;BME280;65486;53.144;18.134;2023-04-03T23:27:20;102318.88;;;-0.01;57.22
76598;BME280;65486;53.144;18.134;2023-04-03T23:29:47;102318.11;;;0.03;57.28
76598;BME280;65486;53.144;18.134;2023-04-03T23:32:14;102314.90;;;0.05;56.90
76598;BME280;65486;53.144;18.134;2023-04-03T23:34:47;102314.56;;;0.06;57.14
76598;BME280;65486;53.144;18.134;2023-04-03T23:37:14;102314.00;;;0.09;57.26
76598;BME280;65486;53.144;18.134;2023-04-03T23:39:41;102309.41;;;0.12;57.25
76598;BME280;65486;53.144;18.134;2023-04-03T23:42:08;102309.81;;;0.14;57.18
76598;BME280;65486;53.144;18.134;2023-04-03T23:44:37;102308.38;;;0.16;57.13
76598;BME280;65486;53.144;18.134;2023-04-03T23:47:04;102309.02;;;0.17;56.93
76598;BME280;65486;53.144;18.134;2023-04-03T23:49:32;102305.14;;;0.18;56.96
76598;BME280;65486;53.144;18.134;2023-04-03T23:51:59;102311.15;;;0.20;57.10
76598;BME280;65486;53.144;18.134;2023-04-03T23:54:26;102309.18;;;0.20;57.17
76598;BME280;65486;53.144;18.134;2023-04-03T23:56:56;102306.70;;;0.21;57.23
76598;BME280;65486;53.144;18.134;2023-04-03T23:59:26;102306.13;;;0.20;57.11
